Time;durP1;ratioP1;P1;durP2;ratioP2;P2;SDS_P1;SDS_P2;PMS_P1;PMS_P2;Temp;Humidity;BMP_temperature;BMP_pressure;BME280_temperature;BME280_humidity;BME280_pressure;Samples;Min_cycle;Max_cycle;Signal;HPM_P1;HPM_P2
2021/11/18 00:00:11;;;;;;;36.63;17.88;;;;;;;;;;5037015;28;20287;-73
2021/11/18 00:02:38;;;;;;;45.10;17.52;;;;;;;;;;5036968;28;20312;-72
2021/11/18 00:05:06;;;;;;;37.92;18.98;;;;;;;;;;5037450;28;20284;-71
2021/11/18 00:07:34;;;;;;;42.08;20.25;;;;;;;;;;5037699;28;20197;-72
2021/11/18 00:10:01;;;;;;;38.30;18.70;;;;;;;;;;5036744;28;20264;-72
2021/11/18 00:12:30;;;;;;;30.38;18.35;;;;;;;;;;5037502;28;20320;-72
2021/11/18 00:14:58;;;;;;;41.28;17.83;;;;;;;;;;5037058;28;20284;-72
2021/11/18 00:17:25;;;;;;;40.42;16.90;;;;;;;;;;5037003;28;20601;-72
2021/11/18 00:19:52;;;;;;;46.17;19.15;;;;;;;;;;5037212;28;20300;-71
2021/11/18 00:22:19;;;;;;;32.60;16.25;;;;;;;;;;5036899;28;20218;-72
2021/11/18 00:24:47;;;;;;;36.63;16.48;;;;;;;;;;5036462;28;20289;-73
2021/11/18 00:27:14;;;;;;;35.90;17.90;;;;;;;;;;5036463;28;20206;-72
2021/11/18 00:29:43;;;;;;;32.90;17.33;;;;;;;;;;5036785;28;20304;-72
2021/11/18 00:32:10;;;;;;;40.78;18.42;;;;;;;;;;5037542;28;20559;-72
2021/11/18 00:34:38;;;;;;;35.13;19.10;;;;;;;;;;5036390;28;20292;-71
2021/11/18 00:37:05;;;;;;;35.83;16.55;;;;;;;;;;5036413;28;20200;-72
2021/11/18 00:39:32;;;;;;;33.47;16.83;;;;;;;;;;5036671;28;20283;-72
2021/11/18 00:41:59;;;;;;;31.67;17.05;;;;;;;;;;5036614;28;20221;-73
2021/11/18 00:44:27;;;;;;;39.35;17.60;;;;;;;;;;5036548;28;20197;-72
2021/11/18 00:46:55;;;;;;;33.75;17.48;;;;;;;;;;5037270;28;20232;-73
2021/11/18 00:49:22;;;;;;;32.28;16.50;;;;;;;;;;5036478;28;20231;-72
2021/11/18 00:51:50;;;;;;;31.25;17.10;;;;;;;;;;5036037;28;20293;-72
2021/11/18 00:54:17;;;;;;;32.65;16.27;;;;;;;;;;5036228;28;20520;-72
2021/11/18 00:56:45;;;;;;;36.65;16.92;;;;;;;;;;5035539;28;20228;-72
2021/11/18 00:59:12;;;;;;;29.73;15.98;;;;;;;;;;5036216;28;20718;-71
2021/11/18 01:01:43;;;;;;;35.72;17.20;;;;;;;;;;5035762;28;20310;-71
2021/11/18 01:04:12;;;;;;;34.65;16.50;;;;;;;;;;5036566;28;20190;-72
2021/11/18 01:06:39;;;;;;;35.50;17.70;;;;;;;;;;5036610;28;20288;-72
2021/11/18 01:09:06;;;;;;;33.45;17.73;;;;;;;;;;5035750;28;20296;-72
2021/11/18 01:11:34;;;;;;;31.65;16.40;;;;;;;;;;5036098;28;20758;-72
2021/11/18 01:14:03;;;;;;;30.20;15.15;;;;;;;;;;5035512;28;20232;-72
2021/11/18 01:16:32;;;;;;;34.85;15.50;;;;;;;;;;5035792;28;20208;-72
2021/11/18 01:18:59;;;;;;;41.78;15.95;;;;;;;;;;5035531;28;20244;-72
2021/11/18 01:21:28;;;;;;;42.47;19.58;;;;;;;;;;5036159;28;20227;-72
2021/11/18 01:23:56;;;;;;;31.30;15.68;;;;;;;;;;5035792;28;20225;-72
2021/11/18 01:26:23;;;;;;;25.40;16.10;;;;;;;;;;5035417;28;20245;-72
2021/11/18 01:28:51;;;;;;;37.35;16.30;;;;;;;;;;5035733;28;20623;-73
2021/11/18 01:31:20;;;;;;;42.88;17.75;;;;;;;;;;5035364;28;20207;-72
2021/11/18 01:33:48;;;;;;;32.78;18.98;;;;;;;;;;5035617;28;20290;-72
2021/11/18 01:36:16;;;;;;;37.88;15.02;;;;;;;;;;5035798;28;20283;-73
2021/11/18 01:38:44;;;;;;;34.45;16.98;;;;;;;;;;5035517;28;20197;-73
2021/11/18 01:41:13;;;;;;;39.08;17.92;;;;;;;;;;5035102;28;20312;-73
2021/11/18 01:43:41;;;;;;;39.38;16.55;;;;;;;;;;5035040;28;20292;-73
2021/11/18 01:46:10;;;;;;;37.65;17.65;;;;;;;;;;5035410;28;20279;-73
2021/11/18 01:48:38;;;;;;;37.53;19.30;;;;;;;;;;5035232;28;20283;-73
2021/11/18 01:51:06;;;;;;;33.78;18.67;;;;;;;;;;5035256;28;20284;-72
2021/11/18 01:53:36;;;;;;;38.83;17.67;;;;;;;;;;5035163;28;20284;-73
2021/11/18 01:56:05;;;;;;;35.00;18.17;;;;;;;;;;5034928;28;20190;-72
2021/11/18 01:58:33;;;;;;;34.08;16.70;;;;;;;;;;5034830;28;20287;-72
2021/11/18 02:01:01;;;;;;;37.20;18.73;;;;;;;;;;5035496;28;20602;-73
2021/11/18 02:03:28;;;;;;;35.10;16.75;;;;;;;;;;5034746;28;20635;-73
2021/11/18 02:05:57;;;;;;;26.35;14.80;;;;;;;;;;5034836;28;20667;-73
2021/11/18 02:08:25;;;;;;;31.25;17.13;;;;;;;;;;5034165;28;20236;-72
2021/11/18 02:10:53;;;;;;;30.02;17.20;;;;;;;;;;5034638;28;20291;-72
2021/11/18 02:13:23;;;;;;;49.53;19.92;;;;;;;;;;5034905;28;20718;-73
2021/11/18 02:15:51;;;;;;;31.95;17.60;;;;;;;;;;5034822;28;20234;-74
2021/11/18 02:18:21;;;;;;;38.35;17.80;;;;;;;;;;5035159;28;20279;-72
2021/11/18 02:20:50;;;;;;;35.08;17.95;;;;;;;;;;5034425;28;20237;-73
2021/11/18 02:23:19;;;;;;;39.53;19.00;;;;;;;;;;5035006;28;20303;-74
2021/11/18 02:25:48;;;;;;;32.92;17.27;;;;;;;;;;5034314;28;20230;-73
2021/11/18 02:28:16;;;;;;;33.95;18.10;;;;;;;;;;5034984;28;20730;-73
2021/11/18 02:30:43;;;;;;;29.77;15.18;;;;;;;;;;5034662;28;20289;-73
2021/11/18 02:33:11;;;;;;;37.35;17.55;;;;;;;;;;5034590;28;20204;-73
2021/11/18 02:35:40;;;;;;;30.95;15.75;;;;;;;;;;5034411;28;20194;-73
2021/11/18 02:38:10;;;;;;;37.10;19.13;;;;;;;;;;5034344;28;20198;-72
2021/11/18 02:40:37;;;;;;;29.35;15.93;;;;;;;;;;5034315;28;20237;-72
2021/11/18 02:43:06;;;;;;;26.92;15.65;;;;;;;;;;5034442;28;20315;-72
2021/11/18 02:45:35;;;;;;;26.65;15.88;;;;;;;;;;5034268;28;20640;-73
2021/11/18 02:48:03;;;;;;;40.08;18.52;;;;;;;;;;5033959;28;20288;-73
2021/11/18 02:50:42;;;;;;;30.92;17.75;;;;;;;;;;5034202;28;20224;-72
2021/11/18 02:53:12;;;;;;;35.58;17.70;;;;;;;;;;5034264;28;20193;-73
2021/11/18 02:55:40;;;;;;;39.95;17.67;;;;;;;;;;5034339;28;20196;-73
2021/11/18 02:58:08;;;;;;;34.05;16.80;;;;;;;;;;5034328;28;20305;-73
2021/11/18 03:00:38;;;;;;;38.17;17.70;;;;;;;;;;5034329;28;20195;-73
2021/11/18 03:03:05;;;;;;;34.08;16.58;;;;;;;;;;5033633;28;20216;-72
2021/11/18 03:05:33;;;;;;;24.10;16.65;;;;;;;;;;5034384;28;20284;-73
2021/11/18 03:08:00;;;;;;;22.17;15.93;;;;;;;;;;5033938;28;20280;-72
2021/11/18 03:10:29;;;;;;;36.22;17.55;;;;;;;;;;5033669;28;20293;-72
2021/11/18 03:12:57;;;;;;;36.28;16.58;;;;;;;;;;5033932;28;20639;-72
2021/11/18 03:15:24;;;;;;;29.02;15.77;;;;;;;;;;5033808;28;20233;-72
2021/11/18 03:17:52;;;;;;;35.33;17.33;;;;;;;;;;5033425;28;20288;-72
2021/11/18 03:20:21;;;;;;;31.92;16.55;;;;;;;;;;5033767;28;20232;-72
2021/11/18 03:22:48;;;;;;;37.65;18.10;;;;;;;;;;5033546;28;20308;-73
2021/11/18 03:25:17;;;;;;;25.27;16.17;;;;;;;;;;5033685;28;20230;-72
2021/11/18 03:27:46;;;;;;;40.35;18.20;;;;;;;;;;5033572;28;20280;-72
2021/11/18 03:30:14;;;;;;;33.50;16.02;;;;;;;;;;5033244;28;20289;-71
2021/11/18 03:32:41;;;;;;;26.48;15.15;;;;;;;;;;5033732;28;20289;-72
2021/11/18 03:35:09;;;;;;;38.20;15.43;;;;;;;;;;5033224;28;20293;-71
2021/11/18 03:37:36;;;;;;;26.17;14.95;;;;;;;;;;5033234;28;20293;-72
2021/11/18 03:40:05;;;;;;;33.75;17.15;;;;;;;;;;5033451;28;20204;-72
2021/11/18 03:42:32;;;;;;;30.02;16.35;;;;;;;;;;5034068;28;20336;-71
2021/11/18 03:45:01;;;;;;;36.80;18.65;;;;;;;;;;5033486;28;20198;-71
2021/11/18 03:47:28;;;;;;;36.10;16.10;;;;;;;;;;5033948;28;20667;-71
2021/11/18 03:49:55;;;;;;;33.80;17.33;;;;;;;;;;5033200;28;20228;-72
2021/11/18 03:52:23;;;;;;;31.25;17.35;;;;;;;;;;5033135;28;20237;-73
2021/11/18 03:54:51;;;;;;;36.83;16.38;;;;;;;;;;5033160;28;20788;-72
2021/11/18 03:57:19;;;;;;;32.72;18.48;;;;;;;;;;5033040;28;20284;-72
2021/11/18 03:59:47;;;;;;;33.92;16.73;;;;;;;;;;5033376;28;20300;-71
2021/11/18 04:02:16;;;;;;;34.88;16.85;;;;;;;;;;5032917;28;20222;-72
2021/11/18 04:04:45;;;;;;;30.30;16.88;;;;;;;;;;5033064;28;20237;-72
2021/11/18 04:07:13;;;;;;;35.80;17.02;;;;;;;;;;5033944;28;20611;-73
2021/11/18 04:09:41;;;;;;;26.88;16.98;;;;;;;;;;5032967;28;20194;-72
2021/11/18 04:12:09;;;;;;;33.40;17.23;;;;;;;;;;5033029;28;20327;-72
2021/11/18 04:14:37;;;;;;;39.40;18.35;;;;;;;;;;5033244;28;20204;-72
2021/11/18 04:17:05;;;;;;;26.55;18.15;;;;;;;;;;5033845;28;20288;-72
2021/11/18 04:19:34;;;;;;;32.03;17.60;;;;;;;;;;5032810;28;20280;-72
2021/11/18 04:22:01;;;;;;;44.80;18.42;;;;;;;;;;5033247;28;20257;-72
2021/11/18 04:24:29;;;;;;;27.10;16.98;;;;;;;;;;5033233;28;20205;-72
2021/11/18 04:26:56;;;;;;;29.42;17.33;;;;;;;;;;5033681;28;20285;-72
2021/11/18 04:29:28;;;;;;;32.17;17.35;;;;;;;;;;5032703;28;20287;-72
2021/11/18 04:31:55;;;;;;;37.88;18.33;;;;;;;;;;5035981;28;20185;-72
2021/11/18 04:34:23;;;;;;;32.10;19.70;;;;;;;;;;5036449;28;20236;-72
2021/11/18 04:36:52;;;;;;;31.17;19.17;;;;;;;;;;5036371;28;20209;-72
2021/11/18 04:39:19;;;;;;;37.50;21.38;;;;;;;;;;5036268;28;20288;-72
2021/11/18 04:41:46;;;;;;;34.78;21.67;;;;;;;;;;5036077;28;20734;-73
2021/11/18 04:44:14;;;;;;;42.47;20.67;;;;;;;;;;5036822;28;20273;-73
2021/11/18 04:46:41;;;;;;;38.92;19.35;;;;;;;;;;5036245;28;20289;-73
2021/11/18 04:49:08;;;;;;;36.85;19.20;;;;;;;;;;5036481;28;20197;-72
2021/11/18 04:51:36;;;;;;;35.95;20.55;;;;;;;;;;5036577;28;20197;-72
2021/11/18 04:54:05;;;;;;;43.70;22.02;;;;;;;;;;5036660;28;20301;-72
2021/11/18 04:56:32;;;;;;;33.53;21.50;;;;;;;;;;5035921;28;20204;-72
2021/11/18 04:59:00;;;;;;;41.00;21.52;;;;;;;;;;5036229;28;20282;-72
2021/11/18 05:01:28;;;;;;;39.55;23.40;;;;;;;;;;5036178;28;20228;-72
2021/11/18 05:03:56;;;;;;;34.90;20.67;;;;;;;;;;5036009;28;20702;-71
2021/11/18 05:06:23;;;;;;;39.47;21.77;;;;;;;;;;5035687;28;20285;-72
2021/11/18 05:08:51;;;;;;;40.10;22.42;;;;;;;;;;5036129;28;20288;-72
2021/11/18 05:11:20;;;;;;;37.60;22.25;;;;;;;;;;5035879;28;20766;-71
2021/11/18 05:13:48;;;;;;;43.80;22.60;;;;;;;;;;5036120;28;20201;-72
2021/11/18 05:16:16;;;;;;;47.15;23.27;;;;;;;;;;5035897;28;20300;-73
2021/11/18 05:18:44;;;;;;;41.28;24.85;;;;;;;;;;5035909;28;20285;-73
2021/11/18 05:21:13;;;;;;;47.03;22.20;;;;;;;;;;5035571;28;20655;-73
2021/11/18 05:23:40;;;;;;;47.47;23.10;;;;;;;;;;5036321;28;20233;-72
2021/11/18 05:26:08;;;;;;;36.38;23.00;;;;;;;;;;5035517;28;20292;-71
2021/11/18 05:28:36;;;;;;;45.15;24.63;;;;;;;;;;5035461;28;20246;-71
2021/11/18 05:31:06;;;;;;;42.75;24.05;;;;;;;;;;5034379;28;20284;-70
2021/11/18 05:33:33;;;;;;;36.65;22.55;;;;;;;;;;5035235;28;20555;-71
2021/11/18 05:36:00;;;;;;;40.78;24.00;;;;;;;;;;5035577;28;20288;-72
2021/11/18 05:38:28;;;;;;;37.20;22.55;;;;;;;;;;5035118;28;20721;-70
2021/11/18 05:40:56;;;;;;;49.85;24.90;;;;;;;;;;5035259;28;20288;-72
2021/11/18 05:43:24;;;;;;;40.55;21.80;;;;;;;;;;5033927;28;20225;-70
2021/11/18 05:45:52;;;;;;;40.78;23.27;;;;;;;;;;5035613;28;20288;-71
2021/11/18 05:48:20;;;;;;;38.53;23.35;;;;;;;;;;5035068;28;20228;-72
2021/11/18 05:50:50;;;;;;;44.08;23.35;;;;;;;;;;5035052;28;20197;-71
2021/11/18 05:53:18;;;;;;;42.95;23.70;;;;;;;;;;5035583;28;20271;-71
2021/11/18 05:55:45;;;;;;;46.05;23.52;;;;;;;;;;5035311;28;20289;-71
2021/11/18 05:58:12;;;;;;;42.83;23.35;;;;;;;;;;5034864;28;20707;-71
2021/11/18 06:00:40;;;;;;;49.72;22.50;;;;;;;;;;5034550;28;20197;-71
2021/11/18 06:03:09;;;;;;;38.53;23.75;;;;;;;;;;5035431;28;20304;-71
2021/11/18 06:05:36;;;;;;;48.22;24.15;;;;;;;;;;5034803;28;20658;-71
2021/11/18 06:08:03;;;;;;;55.33;25.40;;;;;;;;;;5035139;28;20208;-71
2021/11/18 06:10:32;;;;;;;41.60;23.30;;;;;;;;;;5034625;28;20228;-71
2021/11/18 06:13:00;;;;;;;45.25;22.77;;;;;;;;;;5034657;28;20255;-72
2021/11/18 06:15:27;;;;;;;49.00;25.52;;;;;;;;;;5033333;28;20256;-71
2021/11/18 06:17:55;;;;;;;48.20;24.00;;;;;;;;;;5033577;28;20360;-72
2021/11/18 06:20:24;;;;;;;52.28;24.58;;;;;;;;;;5034855;28;20202;-71
2021/11/18 06:22:51;;;;;;;38.83;23.77;;;;;;;;;;5034681;28;20257;-71
2021/11/18 06:25:20;;;;;;;42.25;24.60;;;;;;;;;;5034598;28;20194;-71
2021/11/18 06:27:48;;;;;;;41.45;27.23;;;;;;;;;;5033687;28;20234;-71
2021/11/18 06:30:16;;;;;;;36.83;23.80;;;;;;;;;;5034393;28;20256;-70
2021/11/18 06:32:44;;;;;;;45.13;25.35;;;;;;;;;;5034633;28;20238;-71
2021/11/18 06:35:12;;;;;;;43.50;26.40;;;;;;;;;;5034265;28;20278;-71
2021/11/18 06:37:40;;;;;;;38.85;24.05;;;;;;;;;;5035202;28;20189;-74
2021/11/18 06:40:11;;;;;;;49.30;24.50;;;;;;;;;;5034185;28;20200;-73
2021/11/18 06:42:38;;;;;;;46.47;25.23;;;;;;;;;;5034254;28;20197;-72
2021/11/18 06:45:06;;;;;;;48.50;25.73;;;;;;;;;;5034469;28;20232;-74
2021/11/18 06:47:33;;;;;;;46.50;24.45;;;;;;;;;;5034188;28;20315;-73
2021/11/18 06:50:00;;;;;;;38.58;23.48;;;;;;;;;;5035005;28;20571;-73
2021/11/18 06:52:28;;;;;;;43.85;22.40;;;;;;;;;;5034349;28;20287;-72
2021/11/18 06:54:56;;;;;;;46.95;22.42;;;;;;;;;;5033522;28;20239;-72
2021/11/18 06:57:24;;;;;;;44.03;23.85;;;;;;;;;;5034298;28;20607;-73
2021/11/18 06:59:51;;;;;;;51.67;24.05;;;;;;;;;;5034150;28;20289;-72
2021/11/18 07:02:19;;;;;;;38.85;25.02;;;;;;;;;;5034023;28;20280;-73
2021/11/18 07:04:48;;;;;;;48.10;23.30;;;;;;;;;;5033467;28;20701;-73
2021/11/18 07:07:16;;;;;;;43.88;25.08;;;;;;;;;;5033796;28;20557;-73
2021/11/18 07:09:43;;;;;;;45.15;23.90;;;;;;;;;;5034053;28;20193;-72
2021/11/18 07:12:13;;;;;;;46.40;24.60;;;;;;;;;;5033795;28;20682;-74
2021/11/18 07:14:40;;;;;;;43.95;23.02;;;;;;;;;;5034396;28;20198;-74
2021/11/18 07:17:08;;;;;;;47.15;24.45;;;;;;;;;;5033663;28;20696;-73
2021/11/18 07:19:35;;;;;;;46.45;21.92;;;;;;;;;;5033778;28;20197;-72
2021/11/18 07:22:03;;;;;;;49.22;23.15;;;;;;;;;;5033560;28;20282;-74
2021/11/18 07:24:30;;;;;;;47.78;23.08;;;;;;;;;;5033429;28;20672;-73
2021/11/18 07:26:58;;;;;;;59.58;20.95;;;;;;;;;;5033709;28;20283;-73
2021/11/18 07:29:27;;;;;;;41.60;20.95;;;;;;;;;;5033936;28;20232;-73
2021/11/18 07:31:54;;;;;;;43.65;22.00;;;;;;;;;;5033641;28;20620;-73
2021/11/18 07:34:22;;;;;;;55.63;24.10;;;;;;;;;;5033688;28;20285;-74
2021/11/18 07:36:49;;;;;;;43.55;21.05;;;;;;;;;;5033966;28;20224;-73
2021/11/18 07:39:18;;;;;;;48.45;23.20;;;;;;;;;;5033432;28;20243;-73
2021/11/18 07:41:46;;;;;;;44.58;21.08;;;;;;;;;;5033373;28;20226;-74
2021/11/18 07:44:14;;;;;;;46.00;22.63;;;;;;;;;;5033547;28;20253;-73
2021/11/18 07:46:42;;;;;;;45.65;21.42;;;;;;;;;;5034125;28;20223;-73
2021/11/18 07:49:10;;;;;;;39.67;20.70;;;;;;;;;;5033236;28;20714;-73
2021/11/18 07:51:38;;;;;;;47.25;23.75;;;;;;;;;;5034458;28;20202;-74
2021/11/18 07:54:06;;;;;;;50.00;23.10;;;;;;;;;;5033726;28;20256;-73
2021/11/18 07:56:33;;;;;;;54.35;23.52;;;;;;;;;;5033752;28;20280;-73
2021/11/18 07:59:00;;;;;;;38.97;21.20;;;;;;;;;;5034301;28;20598;-73
2021/11/18 08:01:28;;;;;;;45.22;24.63;;;;;;;;;;5033743;28;20287;-73
2021/11/18 08:03:56;;;;;;;50.25;23.58;;;;;;;;;;5033519;28;20698;-72
2021/11/18 08:06:25;;;;;;;43.80;23.30;;;;;;;;;;5036501;28;20285;-74
2021/11/18 08:08:55;;;;;;;54.03;24.73;;;;;;;;;;5037816;28;20707;-73
2021/11/18 08:11:24;;;;;;;40.65;23.15;;;;;;;;;;5038203;28;20312;-73
2021/11/18 08:13:51;;;;;;;49.17;23.70;;;;;;;;;;5038717;28;20209;-73
2021/11/18 08:16:19;;;;;;;45.75;20.98;;;;;;;;;;5037590;28;20194;-73
2021/11/18 08:18:46;;;;;;;47.53;23.98;;;;;;;;;;5036919;28;20226;-73
2021/11/18 08:21:15;;;;;;;42.53;22.48;;;;;;;;;;5037538;28;20201;-73
2021/11/18 08:23:43;;;;;;;54.20;22.98;;;;;;;;;;5037049;28;20219;-73
2021/11/18 08:26:12;;;;;;;40.60;22.02;;;;;;;;;;5037587;28;20635;-73
2021/11/18 08:28:42;;;;;;;47.78;22.92;;;;;;;;;;5037386;28;20189;-74
2021/11/18 08:31:09;;;;;;;46.03;22.23;;;;;;;;;;5038493;28;20708;-73
2021/11/18 08:33:37;;;;;;;41.33;21.05;;;;;;;;;;5038611;28;20285;-74
2021/11/18 08:36:04;;;;;;;51.55;24.05;;;;;;;;;;5038754;28;20282;-73
2021/11/18 08:38:33;;;;;;;50.45;23.02;;;;;;;;;;5037598;28;20247;-73
2021/11/18 08:41:03;;;;;;;56.97;25.38;;;;;;;;;;5037879;28;20229;-74
2021/11/18 08:43:31;;;;;;;46.08;22.60;;;;;;;;;;5036983;28;20223;-74
2021/11/18 08:45:59;;;;;;;57.38;23.67;;;;;;;;;;5037416;28;20196;-74
2021/11/18 08:48:26;;;;;;;53.13;20.05;;;;;;;;;;5037752;28;20193;-73
2021/11/18 08:50:54;;;;;;;39.70;21.13;;;;;;;;;;5036976;28;20213;-73
2021/11/18 08:53:23;;;;;;;53.78;23.52;;;;;;;;;;5037092;28;20780;-73
2021/11/18 08:55:52;;;;;;;48.15;22.65;;;;;;;;;;5037162;28;20194;-74
2021/11/18 08:58:23;;;;;;;43.22;21.35;;;;;;;;;;5036630;28;20201;-73
2021/11/18 09:00:52;;;;;;;42.63;22.75;;;;;;;;;;5036376;28;20201;-74
2021/11/18 09:03:21;;;;;;;47.63;22.25;;;;;;;;;;5036797;28;20281;-74
2021/11/18 09:05:49;;;;;;;39.97;22.42;;;;;;;;;;5036272;28;20235;-74
2021/11/18 09:08:16;;;;;;;53.78;23.02;;;;;;;;;;5036089;28;20225;-74
2021/11/18 09:10:43;;;;;;;37.83;21.35;;;;;;;;;;5036478;28;20289;-74
2021/11/18 09:13:13;;;;;;;47.17;23.40;;;;;;;;;;5036300;28;20288;-74
2021/11/18 09:15:40;;;;;;;43.03;21.42;;;;;;;;;;5035811;28;20283;-74
2021/11/18 09:18:08;;;;;;;51.83;23.77;;;;;;;;;;5035474;28;20727;-74
2021/11/18 09:20:37;;;;;;;50.13;24.48;;;;;;;;;;5036005;28;20198;-74
2021/11/18 09:23:04;;;;;;;46.83;22.60;;;;;;;;;;5035864;28;20249;-73
2021/11/18 09:25:33;;;;;;;44.80;22.70;;;;;;;;;;5035529;28;20257;-73
2021/11/18 09:28:02;;;;;;;49.30;24.38;;;;;;;;;;5035369;28;20312;-75
2021/11/18 09:30:31;;;;;;;48.30;21.98;;;;;;;;;;5035433;28;20198;-74
2021/11/18 09:33:00;;;;;;;46.03;23.25;;;;;;;;;;5035863;28;20282;-74
2021/11/18 09:35:29;;;;;;;44.10;22.50;;;;;;;;;;5035912;28;20253;-74
2021/11/18 09:37:56;;;;;;;36.80;23.67;;;;;;;;;;5035194;28;20451;-74
2021/11/18 09:40:25;;;;;;;42.73;23.30;;;;;;;;;;5035249;28;20238;-74
2021/11/18 09:43:03;;;;;;;45.75;23.02;;;;;;;;;;5035064;28;21029;-74
2021/11/18 09:45:33;;;;;;;38.75;22.00;;;;;;;;;;5035037;28;20214;-74
2021/11/18 09:48:19;;;;;;;43.22;22.25;;;;;;;;;;5035103;28;20290;-74
2021/11/18 09:50:57;;;;;;;39.57;22.43;;;;;;;;;;5035075;28;20234;-74
2021/11/18 09:53:31;;;;;;;38.15;19.25;;;;;;;;;;5035497;28;20835;-74
2021/11/18 09:56:06;;;;;;;39.15;21.02;;;;;;;;;;5035509;28;20269;-74
2021/11/18 09:58:54;;;;;;;35.05;19.17;;;;;;;;;;5035877;28;20290;-74
2021/11/18 10:01:41;;;;;;;41.53;19.55;;;;;;;;;;5030913;28;20583;-75
2021/11/18 10:04:21;;;;;;;31.63;18.30;;;;;;;;;;5034789;28;20681;-74
2021/11/18 10:06:49;;;;;;;39.95;19.85;;;;;;;;;;5035282;28;20851;-74
2021/11/18 10:09:28;;;;;;;38.75;17.52;;;;;;;;;;5035220;28;20330;-74
2021/11/18 10:11:59;;;;;;;28.35;16.23;;;;;;;;;;5034706;28;20259;-74
2021/11/18 10:14:36;;;;;;;33.88;20.55;;;;;;;;;;5034173;28;20226;-74
2021/11/18 10:17:14;;;;;;;43.40;21.58;;;;;;;;;;5034224;28;20222;-74
2021/11/18 10:19:44;;;;;;;30.73;18.23;;;;;;;;;;5033616;28;20186;-74
2021/11/18 10:22:12;;;;;;;46.17;21.23;;;;;;;;;;5033567;28;20279;-74
2021/11/18 10:24:41;;;;;;;33.33;19.43;;;;;;;;;;5034146;28;20485;-74
2021/11/18 10:27:10;;;;;;;40.88;19.65;;;;;;;;;;5033387;28;20529;-74
2021/11/18 10:29:54;;;;;;;41.55;19.40;;;;;;;;;;5032594;28;20668;-74
2021/11/18 10:32:23;;;;;;;43.78;20.08;;;;;;;;;;5033644;28;20198;-74
2021/11/18 10:34:54;;;;;;;33.80;19.83;;;;;;;;;;5033499;28;20199;-75
2021/11/18 10:37:23;;;;;;;30.13;16.75;;;;;;;;;;5034101;28;20257;-74
2021/11/18 10:39:55;;;;;;;50.33;20.17;;;;;;;;;;5033759;28;20538;-75
2021/11/18 10:42:25;;;;;;;36.07;18.37;;;;;;;;;;5033245;28;20537;-74
2021/11/18 10:44:53;;;;;;;40.92;19.95;;;;;;;;;;5033724;28;20481;-75
2021/11/18 10:47:23;;;;;;;39.40;19.65;;;;;;;;;;5033438;28;20253;-75
2021/11/18 10:49:58;;;;;;;40.42;21.42;;;;;;;;;;5033315;28;20285;-74
2021/11/18 10:52:28;;;;;;;42.10;21.25;;;;;;;;;;5033593;28;20191;-75
2021/11/18 10:55:01;;;;;;;39.30;18.73;;;;;;;;;;5033045;28;20191;-74
2021/11/18 10:57:31;;;;;;;46.00;19.40;;;;;;;;;;5032921;28;20466;-75
2021/11/18 11:00:11;;;;;;;30.73;18.13;;;;;;;;;;5033199;28;20223;-74
2021/11/18 11:02:39;;;;;;;36.77;16.60;;;;;;;;;;5033440;28;20440;-75
2021/11/18 11:05:23;;;;;;;38.80;16.90;;;;;;;;;;5032669;28;20568;-74
2021/11/18 11:07:51;;;;;;;41.27;16.70;;;;;;;;;;5033950;28;20278;-75
2021/11/18 11:10:19;;;;;;;37.38;16.75;;;;;;;;;;5032676;28;20503;-75
2021/11/18 11:12:51;;;;;;;36.73;15.70;;;;;;;;;;4994888;28;1118569;-75
2021/11/18 11:15:42;;;;;;;28.80;14.67;;;;;;;;;;5033584;28;20278;-75
2021/11/18 11:18:24;;;;;;;24.93;10.60;;;;;;;;;;5033508;28;20505;-75
2021/11/18 11:21:08;;;;;;;34.33;14.90;;;;;;;;;;5033659;28;21010;-75
2021/11/18 11:23:39;;;;;;;29.65;13.50;;;;;;;;;;5033488;28;20637;-75
2021/11/18 11:26:16;;;;;;;34.60;14.37;;;;;;;;;;5033986;28;20222;-75
2021/11/18 11:28:50;;;;;;;30.90;14.07;;;;;;;;;;5034140;28;20444;-75
2021/11/18 11:31:41;;;;;;;28.47;13.27;;;;;;;;;;5033635;28;20222;-74
2021/11/18 11:34:24;;;;;;;18.43;10.80;;;;;;;;;;5019015;28;20885;-75
2021/11/18 11:36:54;;;;;;;21.90;10.43;;;;;;;;;;5033240;28;20521;-74
2021/11/18 11:39:26;;;;;;;32.17;12.90;;;;;;;;;;5032700;28;20980;-75
2021/11/18 11:42:14;;;;;;;27.10;12.13;;;;;;;;;;5032601;28;20473;-74
2021/11/18 11:44:47;;;;;;;28.50;12.27;;;;;;;;;;5032890;28;20213;-75
2021/11/18 11:47:18;;;;;;;23.27;12.57;;;;;;;;;;5033482;28;20517;-75
2021/11/18 11:49:53;;;;;;;20.10;10.47;;;;;;;;;;5033378;28;20434;-74
2021/11/18 11:52:33;;;;;;;23.47;8.37;;;;;;;;;;5033525;28;20445;-74
2021/11/18 11:55:06;;;;;;;35.17;13.83;;;;;;;;;;5033264;28;20430;-75
2021/11/18 11:57:40;;;;;;;25.20;10.67;;;;;;;;;;5033298;28;20517;-75
2021/11/18 12:00:11;;;;;;;30.13;12.00;;;;;;;;;;5033651;28;20843;-76
2021/11/18 12:02:40;;;;;;;31.23;13.30;;;;;;;;;;5032976;28;20517;-75
2021/11/18 12:05:10;;;;;;;23.73;10.45;;;;;;;;;;5032829;28;20561;-75
2021/11/18 12:07:43;;;;;;;29.97;11.83;;;;;;;;;;5033241;28;20274;-75
2021/11/18 12:10:15;;;;;;;20.20;10.13;;;;;;;;;;5033017;28;20480;-74
2021/11/18 12:12:44;;;;;;;23.47;9.43;;;;;;;;;;5032742;28;21058;-75
2021/11/18 12:15:12;;;;;;;28.67;8.93;;;;;;;;;;5033786;28;20525;-75
2021/11/18 12:17:42;;;;;;;28.70;9.90;;;;;;;;;;5032816;28;20961;-75
2021/11/18 12:20:12;;;;;;;23.20;10.00;;;;;;;;;;5033625;28;20515;-75
2021/11/18 12:22:56;;;;;;;22.83;11.50;;;;;;;;;;5032739;28;20516;-75
2021/11/18 12:25:41;;;;;;;20.90;8.17;;;;;;;;;;5032631;28;20655;-77
2021/11/18 12:28:19;;;;;;;17.47;7.27;;;;;;;;;;5032961;28;20804;-75
2021/11/18 12:30:58;;;;;;;23.40;9.40;;;;;;;;;;5032707;28;20430;-75
2021/11/18 12:33:42;;;;;;;28.43;8.90;;;;;;;;;;5032651;28;20517;-75
2021/11/18 12:36:11;;;;;;;22.33;10.13;;;;;;;;;;5032886;28;20440;-75
2021/11/18 12:38:42;;;;;;;17.70;7.27;;;;;;;;;;5032831;28;20536;-74
2021/11/18 12:41:12;;;;;;;25.83;7.13;;;;;;;;;;5033023;28;20461;-75
2021/11/18 12:43:47;;;;;;;17.20;7.60;;;;;;;;;;5033077;28;20801;-75
2021/11/18 12:46:19;;;;;;;13.90;6.57;;;;;;;;;;5032968;28;20565;-75
2021/11/18 12:49:16;;;;;;;9.80;5.68;;;;;;;;;;5033056;28;20481;-75
2021/11/18 12:51:49;;;;;;;16.93;6.70;;;;;;;;;;4992932;28;20189;-75
2021/11/18 12:54:28;;;;;;;21.57;6.47;;;;;;;;;;5028489;28;20482;-74
2021/11/18 12:57:02;;;;;;;17.57;7.20;;;;;;;;;;5036113;28;20442;-76
2021/11/18 12:59:46;;;;;;;15.68;5.75;;;;;;;;;;5036425;28;20431;-75
2021/11/18 13:02:14;;;;;;;13.23;5.67;;;;;;;;;;5035374;28;20649;-73
2021/11/18 13:04:47;;;;;;;16.57;6.73;;;;;;;;;;5035936;28;20442;-75
2021/11/18 13:07:29;;;;;;;14.87;6.70;;;;;;;;;;5036778;28;20442;-77
2021/11/18 13:10:13;;;;;;;10.33;5.40;;;;;;;;;;5035796;28;20483;-78
2021/11/18 13:12:40;;;;;;;32.60;6.27;;;;;;;;;;5035781;28;21028;-78
2021/11/18 13:15:09;;;;;;;15.43;6.10;;;;;;;;;;5035690;28;20477;-77
2021/11/18 13:17:47;;;;;;;13.53;5.53;;;;;;;;;;5036019;28;20497;-78
2021/11/18 13:20:33;;;;;;;17.17;5.83;;;;;;;;;;5036280;28;20525;-79
2021/11/18 13:23:17;;;;;;;14.57;5.27;;;;;;;;;;5035843;28;20419;-79
2021/11/18 13:25:49;;;;;;;11.90;5.43;;;;;;;;;;5036225;28;20470;-80
2021/11/18 13:28:17;;;;;;;15.00;4.53;;;;;;;;;;5035876;28;20495;-78
2021/11/18 13:30:52;;;;;;;7.67;5.30;;;;;;;;;;5035402;28;20536;-77
2021/11/18 13:33:21;;;;;;;13.60;5.90;;;;;;;;;;5034168;28;20440;-76
2021/11/18 13:35:57;;;;;;;15.33;5.77;;;;;;;;;;5034812;28;20449;-75
2021/11/18 13:38:26;;;;;;;11.67;5.13;;;;;;;;;;5035666;28;20510;-80
2021/11/18 13:40:57;;;;;;;20.80;7.40;;;;;;;;;;5035170;28;20536;-79
2021/11/18 13:43:27;;;;;;;16.90;5.83;;;;;;;;;;5034811;28;20876;-79
2021/11/18 13:46:03;;;;;;;17.10;5.20;;;;;;;;;;5035412;28;20488;-78
2021/11/18 13:48:54;;;;;;;18.90;6.97;;;;;;;;;;5035513;28;20433;-76
2021/11/18 13:51:30;;;;;;;18.43;5.50;;;;;;;;;;5015687;28;20482;-78
2021/11/18 13:53:58;;;;;;;20.60;6.47;;;;;;;;;;5034944;28;20516;-78
2021/11/18 13:56:36;;;;;;;17.20;5.37;;;;;;;;;;5035035;28;20485;-77
2021/11/18 13:59:05;;;;;;;16.07;5.90;;;;;;;;;;5034348;28;20910;-76
2021/11/18 14:01:35;;;;;;;22.40;6.77;;;;;;;;;;5034032;28;20526;-77
2021/11/18 14:04:05;;;;;;;15.50;6.07;;;;;;;;;;5017585;28;20529;-79
2021/11/18 14:06:35;;;;;;;13.27;5.27;;;;;;;;;;5014810;28;20832;-78
2021/11/18 14:09:05;;;;;;;15.73;5.50;;;;;;;;;;5014930;28;20439;-78
2021/11/18 14:11:34;;;;;;;22.37;8.67;;;;;;;;;;5014953;28;20566;-79
2021/11/18 14:14:22;;;;;;;32.10;6.90;;;;;;;;;;5014355;28;20458;-77
2021/11/18 14:16:50;;;;;;;20.90;6.53;;;;;;;;;;5014431;28;20527;-76
2021/11/18 14:19:19;;;;;;;15.43;5.60;;;;;;;;;;5014528;28;20964;-76
2021/11/18 14:21:49;;;;;;;16.23;4.87;;;;;;;;;;5014906;28;21041;-78
2021/11/18 14:24:29;;;;;;;11.00;4.73;;;;;;;;;;5014461;28;20537;-78
2021/11/18 14:26:57;;;;;;;17.47;4.70;;;;;;;;;;5013934;28;20474;-77
2021/11/18 14:29:32;;;;;;;24.37;5.10;;;;;;;;;;5014915;28;20868;-76
2021/11/18 14:32:04;;;;;;;15.90;4.43;;;;;;;;;;5014586;28;20861;-76
2021/11/18 14:34:34;;;;;;;11.35;5.10;;;;;;;;;;5021092;28;20942;-77